sensor_id;sensor_type;location;lat;lon;timestamp;P1;P2;P0
39955;PMS5003;25631;51.516;-0.470;2023-08-12T00:00:47;8;7;
39955;PMS5003;25631;51.516;-0.470;2023-08-12T00:03:23;6;5;
39955;PMS5003;25631;51.516;-0.470;2023-08-12T00:06:00;7;7;
39955;PMS5003;25631;51.516;-0.470;2023-08-12T00:08:36;7;6;
39955;PMS5003;25631;51.516;-0.470;2023-08-12T00:11:13;7;6;
39955;PMS5003;25631;51.516;-0.470;2023-08-12T00:13:49;9;8;
39955;PMS5003;25631;51.516;-0.470;2023-08-12T00:16:25;9;8;
39955;PMS5003;25631;51.516;-0.470;2023-08-12T00:19:02;6;5;
39955;PMS5003;25631;51.516;-0.470;2023-08-12T00:21:38;7;6;
39955;PMS5003;25631;51.516;-0.470;2023-08-12T00:24:15;7;6;
39955;PMS5003;25631;51.516;-0.470;2023-08-12T00:26:52;11;7;
39955;PMS5003;25631;51.516;-0.470;2023-08-12T00:29:28;11;8;
39955;PMS5003;25631;51.516;-0.470;2023-08-12T00:32:04;12;8;
39955;PMS5003;25631;51.516;-0.470;2023-08-12T00:34:41;7;5;
39955;PMS5003;25631;51.516;-0.470;2023-08-12T00:37:18;5;4;
39955;PMS5003;25631;51.516;-0.470;2023-08-12T00:39:54;6;6;
39955;PMS5003;25631;51.516;-0.470;2023-08-12T00:42:31;5;4;
39955;PMS5003;25631;51.516;-0.470;2023-08-12T00:45:08;7;4;
39955;PMS5003;25631;51.516;-0.470;2023-08-12T00:47:46;5;5;
39955;PMS5003;25631;51.516;-0.470;2023-08-12T00:50:22;6;5;
39955;PMS5003;25631;51.516;-0.470;2023-08-12T00:52:59;5;4;
39955;PMS5003;25631;51.516;-0.470;2023-08-12T00:55:36;5;4;
39955;PMS5003;25631;51.516;-0.470;2023-08-12T00:58:12;6;4;
39955;PMS5003;25631;51.516;-0.470;2023-08-12T01:00:49;6;5;
39955;PMS5003;25631;51.516;-0.470;2023-08-12T01:03:26;6;6;
39955;PMS5003;25631;51.516;-0.470;2023-08-12T01:06:03;8;7;
39955;PMS5003;25631;51.516;-0.470;2023-08-12T01:08:39;8;6;
39955;PMS5003;25631;51.516;-0.470;2023-08-12T01:11:17;7;6;
39955;PMS5003;25631;51.516;-0.470;2023-08-12T01:14:01;3;2;
39955;PMS5003;25631;51.516;-0.470;2023-08-12T01:16:46;2;2;
39955;PMS5003;25631;51.516;-0.470;2023-08-12T01:19:29;3;3;
39955;PMS5003;25631;51.516;-0.470;2023-08-12T01:22:10;2;2;
39955;PMS5003;25631;51.516;-0.470;2023-08-12T01:24:47;3;2;
39955;PMS5003;25631;51.516;-0.470;2023-08-12T01:27:23;1;0;
39955;PMS5003;25631;51.516;-0.470;2023-08-12T01:30:00;2;1;
39955;PMS5003;25631;51.516;-0.470;2023-08-12T01:32:40;1;1;
39955;PMS5003;25631;51.516;-0.470;2023-08-12T01:35:21;0;0;
39955;PMS5003;25631;51.516;-0.470;2023-08-12T01:38:02;1;1;
39955;PMS5003;25631;51.516;-0.470;2023-08-12T01:40:41;1;1;
39955;PMS5003;25631;51.516;-0.470;2023-08-12T01:43:19;1;1;
39955;PMS5003;25631;51.516;-0.470;2023-08-12T01:45:55;0;0;
39955;PMS5003;25631;51.516;-0.470;2023-08-12T01:48:32;1;1;
39955;PMS5003;25631;51.516;-0.470;2023-08-12T01:51:09;0;0;
39955;PMS5003;25631;51.516;-0.470;2023-08-12T01:53:46;1;1;
39955;PMS5003;25631;51.516;-0.470;2023-08-12T01:56:23;1;0;
39955;PMS5003;25631;51.516;-0.470;2023-08-12T01:58:59;0;0;
39955;PMS5003;25631;51.516;-0.470;2023-08-12T02:01:36;1;0;
39955;PMS5003;25631;51.516;-0.470;2023-08-12T02:04:12;0;0;
39955;PMS5003;25631;51.516;-0.470;2023-08-12T02:06:49;1;1;
39955;PMS5003;25631;51.516;-0.470;2023-08-12T02:09:25;1;0;
39955;PMS5003;25631;51.516;-0.470;2023-08-12T02:12:02;0;0;
39955;PMS5003;25631;51.516;-0.470;2023-08-12T02:14:38;0;0;
39955;PMS5003;25631;51.516;-0.470;2023-08-12T02:17:15;1;0;
39955;PMS5003;25631;51.516;-0.470;2023-08-12T02:19:51;0;0;
39955;PMS5003;25631;51.516;-0.470;2023-08-12T02:22:28;0;0;
39955;PMS5003;25631;51.516;-0.470;2023-08-12T02:25:04;1;1;
39955;PMS5003;25631;51.516;-0.470;2023-08-12T02:27:41;2;1;
39955;PMS5003;25631;51.516;-0.470;2023-08-12T02:30:17;0;0;
39955;PMS5003;25631;51.516;-0.470;2023-08-12T02:32:54;0;0;
39955;PMS5003;25631;51.516;-0.470;2023-08-12T02:35:30;1;1;
39955;PMS5003;25631;51.516;-0.470;2023-08-12T02:38:08;1;1;
39955;PMS5003;25631;51.516;-0.470;2023-08-12T02:40:47;1;1;
39955;PMS5003;25631;51.516;-0.470;2023-08-12T02:43:24;0;0;
39955;PMS5003;25631;51.516;-0.470;2023-08-12T02:46:00;0;0;
39955;PMS5003;25631;51.516;-0.470;2023-08-12T02:48:37;0;0;
39955;PMS5003;25631;51.516;-0.470;2023-08-12T02:51:13;0;0;
39955;PMS5003;25631;51.516;-0.470;2023-08-12T02:53:50;1;1;
39955;PMS5003;25631;51.516;-0.470;2023-08-12T02:56:26;1;1;
39955;PMS5003;25631;51.516;-0.470;2023-08-12T02:59:03;0;0;
39955;PMS5003;25631;51.516;-0.470;2023-08-12T03:01:40;0;0;
39955;PMS5003;25631;51.516;-0.470;2023-08-12T03:04:17;0;0;
39955;PMS5003;25631;51.516;-0.470;2023-08-12T03:06:54;1;1;
39955;PMS5003;25631;51.516;-0.470;2023-08-12T03:09:30;0;0;
39955;PMS5003;25631;51.516;-0.470;2023-08-12T03:12:07;1;1;
39955;PMS5003;25631;51.516;-0.470;2023-08-12T03:14:44;1;1;
39955;PMS5003;25631;51.516;-0.470;2023-08-12T03:17:20;2;2;
39955;PMS5003;25631;51.516;-0.470;2023-08-12T03:19:57;3;2;
39955;PMS5003;25631;51.516;-0.470;2023-08-12T03:22:34;0;0;
39955;PMS5003;25631;51.516;-0.470;2023-08-12T03:25:11;0;0;
39955;PMS5003;25631;51.516;-0.470;2023-08-12T03:27:47;0;0;
39955;PMS5003;25631;51.516;-0.470;2023-08-12T03:30:24;0;0;
39955;PMS5003;25631;51.516;-0.470;2023-08-12T03:33:00;1;1;
39955;PMS5003;25631;51.516;-0.470;2023-08-12T03:35:37;1;1;
39955;PMS5003;25631;51.516;-0.470;2023-08-12T03:38:14;1;1;
39955;PMS5003;25631;51.516;-0.470;2023-08-12T03:40:50;1;1;
39955;PMS5003;25631;51.516;-0.470;2023-08-12T03:43:27;0;0;
39955;PMS5003;25631;51.516;-0.470;2023-08-12T03:46:03;0;0;
39955;PMS5003;25631;51.516;-0.470;2023-08-12T03:48:40;0;0;
39955;PMS5003;25631;51.516;-0.470;2023-08-12T03:51:16;2;2;
39955;PMS5003;25631;51.516;-0.470;2023-08-12T03:53:53;2;2;
39955;PMS5003;25631;51.516;-0.470;2023-08-12T03:56:29;0;0;
39955;PMS5003;25631;51.516;-0.470;2023-08-12T03:59:06;0;0;
39955;PMS5003;25631;51.516;-0.470;2023-08-12T04:01:42;1;0;
39955;PMS5003;25631;51.516;-0.470;2023-08-12T04:04:24;1;1;
39955;PMS5003;25631;51.516;-0.470;2023-08-12T04:07:00;0;0;
39955;PMS5003;25631;51.516;-0.470;2023-08-12T04:09:37;0;0;
39955;PMS5003;25631;51.516;-0.470;2023-08-12T04:12:13;0;0;
39955;PMS5003;25631;51.516;-0.470;2023-08-12T04:14:50;1;1;
39955;PMS5003;25631;51.516;-0.470;2023-08-12T04:17:26;1;1;
39955;PMS5003;25631;51.516;-0.470;2023-08-12T04:20:03;1;1;
39955;PMS5003;25631;51.516;-0.470;2023-08-12T04:22:41;1;1;
39955;PMS5003;25631;51.516;-0.470;2023-08-12T04:25:17;1;1;
39955;PMS5003;25631;51.516;-0.470;2023-08-12T04:27:54;1;1;
39955;PMS5003;25631;51.516;-0.470;2023-08-12T04:30:30;1;1;
39955;PMS5003;25631;51.516;-0.470;2023-08-12T04:33:06;1;1;
39955;PMS5003;25631;51.516;-0.470;2023-08-12T04:35:43;0;0;
39955;PMS5003;25631;51.516;-0.470;2023-08-12T04:38:20;1;0;
39955;PMS5003;25631;51.516;-0.470;2023-08-12T04:40:56;1;1;
39955;PMS5003;25631;51.516;-0.470;2023-08-12T04:43:33;0;0;
39955;PMS5003;25631;51.516;-0.470;2023-08-12T04:46:09;1;1;
39955;PMS5003;25631;51.516;-0.470;2023-08-12T04:48:46;1;1;
39955;PMS5003;25631;51.516;-0.470;2023-08-12T04:51:23;2;2;
39955;PMS5003;25631;51.516;-0.470;2023-08-12T04:53:59;2;2;
39955;PMS5003;25631;51.516;-0.470;2023-08-12T04:56:35;1;1;
39955;PMS5003;25631;51.516;-0.470;2023-08-12T04:59:12;1;1;
39955;PMS5003;25631;51.516;-0.470;2023-08-12T05:01:48;2;2;
39955;PMS5003;25631;51.516;-0.470;2023-08-12T05:04:25;1;1;
39955;PMS5003;25631;51.516;-0.470;2023-08-12T05:07:01;2;1;
39955;PMS5003;25631;51.516;-0.470;2023-08-12T05:09:38;1;0;
39955;PMS5003;25631;51.516;-0.470;2023-08-12T05:12:14;1;1;
39955;PMS5003;25631;51.516;-0.470;2023-08-12T05:14:51;2;1;
39955;PMS5003;25631;51.516;-0.470;2023-08-12T05:17:27;2;1;
39955;PMS5003;25631;51.516;-0.470;2023-08-12T05:20:04;2;1;
39955;PMS5003;25631;51.516;-0.470;2023-08-12T05:22:42;1;1;
39955;PMS5003;25631;51.516;-0.470;2023-08-12T05:25:18;1;1;
39955;PMS5003;25631;51.516;-0.470;2023-08-12T05:27:55;0;0;
39955;PMS5003;25631;51.516;-0.470;2023-08-12T05:30:31;1;1;
39955;PMS5003;25631;51.516;-0.470;2023-08-12T05:33:08;2;2;
39955;PMS5003;25631;51.516;-0.470;2023-08-12T05:35:46;2;1;
39955;PMS5003;25631;51.516;-0.470;2023-08-12T05:38:23;2;1;
39955;PMS5003;25631;51.516;-0.470;2023-08-12T05:41:00;1;1;
39955;PMS5003;25631;51.516;-0.470;2023-08-12T05:43:36;1;1;
39955;PMS5003;25631;51.516;-0.470;2023-08-12T05:46:13;1;1;
39955;PMS5003;25631;51.516;-0.470;2023-08-12T05:48:49;1;1;
39955;PMS5003;25631;51.516;-0.470;2023-08-12T05:51:26;1;1;
39955;PMS5003;25631;51.516;-0.470;2023-08-12T05:54:03;1;1;
39955;PMS5003;25631;51.516;-0.470;2023-08-12T05:56:39;0;0;
39955;PMS5003;25631;51.516;-0.470;2023-08-12T05:59:16;0;0;
39955;PMS5003;25631;51.516;-0.470;2023-08-12T06:01:53;3;3;
39955;PMS5003;25631;51.516;-0.470;2023-08-12T06:04:30;1;1;
39955;PMS5003;25631;51.516;-0.470;2023-08-12T06:07:06;1;1;
39955;PMS5003;25631;51.516;-0.470;2023-08-12T06:09:42;1;1;
39955;PMS5003;25631;51.516;-0.470;2023-08-12T06:12:19;3;3;
39955;PMS5003;25631;51.516;-0.470;2023-08-12T06:14:55;1;1;
39955;PMS5003;25631;51.516;-0.470;2023-08-12T06:17:32;2;1;
39955;PMS5003;25631;51.516;-0.470;2023-08-12T06:20:09;2;1;
39955;PMS5003;25631;51.516;-0.470;2023-08-12T06:22:46;2;2;
39955;PMS5003;25631;51.516;-0.470;2023-08-12T06:25:23;1;0;
39955;PMS5003;25631;51.516;-0.470;2023-08-12T06:27:59;1;0;
39955;PMS5003;25631;51.516;-0.470;2023-08-12T06:30:36;1;0;
39955;PMS5003;25631;51.516;-0.470;2023-08-12T06:33:12;1;1;
39955;PMS5003;25631;51.516;-0.470;2023-08-12T06:35:49;2;1;
39955;PMS5003;25631;51.516;-0.470;2023-08-12T06:38:26;0;0;
39955;PMS5003;25631;51.516;-0.470;2023-08-12T06:41:02;0;0;
39955;PMS5003;25631;51.516;-0.470;2023-08-12T06:43:39;0;0;
39955;PMS5003;25631;51.516;-0.470;2023-08-12T06:46:20;1;1;
39955;PMS5003;25631;51.516;-0.470;2023-08-12T06:48:57;0;0;
39955;PMS5003;25631;51.516;-0.470;2023-08-12T06:51:34;1;1;
39955;PMS5003;25631;51.516;-0.470;2023-08-12T06:54:10;1;1;
39955;PMS5003;25631;51.516;-0.470;2023-08-12T06:56:47;2;1;
39955;PMS5003;25631;51.516;-0.470;2023-08-12T06:59:23;2;1;
39955;PMS5003;25631;51.516;-0.470;2023-08-12T07:02:00;3;1;
39955;PMS5003;25631;51.516;-0.470;2023-08-12T07:04:36;3;1;
39955;PMS5003;25631;51.516;-0.470;2023-08-12T07:07:13;2;2;
39955;PMS5003;25631;51.516;-0.470;2023-08-12T07:09:49;2;2;
39955;PMS5003;25631;51.516;-0.470;2023-08-12T07:12:26;1;1;
39955;PMS5003;25631;51.516;-0.470;2023-08-12T07:15:02;1;1;
39955;PMS5003;25631;51.516;-0.470;2023-08-12T07:17:39;1;1;
39955;PMS5003;25631;51.516;-0.470;2023-08-12T07:20:17;0;0;
39955;PMS5003;25631;51.516;-0.470;2023-08-12T07:22:53;1;1;
39955;PMS5003;25631;51.516;-0.470;2023-08-12T07:25:30;2;1;
39955;PMS5003;25631;51.516;-0.470;2023-08-12T07:28:06;2;1;
39955;PMS5003;25631;51.516;-0.470;2023-08-12T07:30:43;2;1;
39955;PMS5003;25631;51.516;-0.470;2023-08-12T07:33:19;1;1;
39955;PMS5003;25631;51.516;-0.470;2023-08-12T07:35:56;1;1;
39955;PMS5003;25631;51.516;-0.470;2023-08-12T07:38:32;0;0;
39955;PMS5003;25631;51.516;-0.470;2023-08-12T07:41:09;0;0;
39955;PMS5003;25631;51.516;-0.470;2023-08-12T07:43:47;1;1;
39955;PMS5003;25631;51.516;-0.470;2023-08-12T07:46:24;0;0;
39955;PMS5003;25631;51.516;-0.470;2023-08-12T07:49:00;1;1;
39955;PMS5003;25631;51.516;-0.470;2023-08-12T07:51:37;1;1;
39955;PMS5003;25631;51.516;-0.470;2023-08-12T07:54:13;0;0;
39955;PMS5003;25631;51.516;-0.470;2023-08-12T07:56:50;0;0;
39955;PMS5003;25631;51.516;-0.470;2023-08-12T07:59:26;0;0;
39955;PMS5003;25631;51.516;-0.470;2023-08-12T08:02:03;0;0;
39955;PMS5003;25631;51.516;-0.470;2023-08-12T08:04:39;1;0;
39955;PMS5003;25631;51.516;-0.470;2023-08-12T08:07:16;1;0;
39955;PMS5003;25631;51.516;-0.470;2023-08-12T08:09:52;1;0;
39955;PMS5003;25631;51.516;-0.470;2023-08-12T08:12:28;1;0;
39955;PMS5003;25631;51.516;-0.470;2023-08-12T08:15:05;0;0;
39955;PMS5003;25631;51.516;-0.470;2023-08-12T08:17:42;1;0;
39955;PMS5003;25631;51.516;-0.470;2023-08-12T08:20:19;0;0;
39955;PMS5003;25631;51.516;-0.470;2023-08-12T08:22:56;0;0;
39955;PMS5003;25631;51.516;-0.470;2023-08-12T08:25:33;0;0;
39955;PMS5003;25631;51.516;-0.470;2023-08-12T08:28:09;0;0;
39955;PMS5003;25631;51.516;-0.470;2023-08-12T08:30:46;0;0;
39955;PMS5003;25631;51.516;-0.470;2023-08-12T08:33:22;2;2;
39955;PMS5003;25631;51.516;-0.470;2023-08-12T08:35:59;2;2;
39955;PMS5003;25631;51.516;-0.470;2023-08-12T08:38:36;2;2;
39955;PMS5003;25631;51.516;-0.470;2023-08-12T08:41:12;1;1;
39955;PMS5003;25631;51.516;-0.470;2023-08-12T08:43:52;1;1;
39955;PMS5003;25631;51.516;-0.470;2023-08-12T08:46:31;0;0;
39955;PMS5003;25631;51.516;-0.470;2023-08-12T08:49:14;2;2;
39955;PMS5003;25631;51.516;-0.470;2023-08-12T08:51:51;1;1;
39955;PMS5003;25631;51.516;-0.470;2023-08-12T08:54:28;1;1;
39955;PMS5003;25631;51.516;-0.470;2023-08-12T08:57:05;1;1;
39955;PMS5003;25631;51.516;-0.470;2023-08-12T08:59:41;0;0;
39955;PMS5003;25631;51.516;-0.470;2023-08-12T09:02:18;0;0;
39955;PMS5003;25631;51.516;-0.470;2023-08-12T09:04:55;1;0;
39955;PMS5003;25631;51.516;-0.470;2023-08-12T09:07:32;1;1;
39955;PMS5003;25631;51.516;-0.470;2023-08-12T09:10:10;1;1;
39955;PMS5003;25631;51.516;-0.470;2023-08-12T09:12:47;1;1;
39955;PMS5003;25631;51.516;-0.470;2023-08-12T09:15:24;1;1;
39955;PMS5003;25631;51.516;-0.470;2023-08-12T09:18:00;0;0;
39955;PMS5003;25631;51.516;-0.470;2023-08-12T09:20:37;1;1;
39955;PMS5003;25631;51.516;-0.470;2023-08-12T09:23:13;1;1;
39955;PMS5003;25631;51.516;-0.470;2023-08-12T09:25:50;0;0;
39955;PMS5003;25631;51.516;-0.470;2023-08-12T09:28:26;1;1;
39955;PMS5003;25631;51.516;-0.470;2023-08-12T09:31:03;0;0;
39955;PMS5003;25631;51.516;-0.470;2023-08-12T09:33:39;1;1;
39955;PMS5003;25631;51.516;-0.470;2023-08-12T09:36:16;3;1;
39955;PMS5003;25631;51.516;-0.470;2023-08-12T09:38:53;3;1;
39955;PMS5003;25631;51.516;-0.470;2023-08-12T09:41:29;0;0;
39955;PMS5003;25631;51.516;-0.470;2023-08-12T09:44:06;0;0;
39955;PMS5003;25631;51.516;-0.470;2023-08-12T09:46:44;2;2;
39955;PMS5003;25631;51.516;-0.470;2023-08-12T09:49:20;1;1;
39955;PMS5003;25631;51.516;-0.470;2023-08-12T09:51:57;1;1;
39955;PMS5003;25631;51.516;-0.470;2023-08-12T09:54:34;1;1;
39955;PMS5003;25631;51.516;-0.470;2023-08-12T09:57:11;2;2;
39955;PMS5003;25631;51.516;-0.470;2023-08-12T09:59:50;3;3;
39955;PMS5003;25631;51.516;-0.470;2023-08-12T10:02:29;1;1;
39955;PMS5003;25631;51.516;-0.470;2023-08-12T10:05:06;1;1;
39955;PMS5003;25631;51.516;-0.470;2023-08-12T10:07:45;1;1;
39955;PMS5003;25631;51.516;-0.470;2023-08-12T10:10:22;2;2;
39955;PMS5003;25631;51.516;-0.470;2023-08-12T10:13:00;3;2;
39955;PMS5003;25631;51.516;-0.470;2023-08-12T10:15:37;1;1;
39955;PMS5003;25631;51.516;-0.470;2023-08-12T10:18:14;1;1;
39955;PMS5003;25631;51.516;-0.470;2023-08-12T10:20:51;0;0;
39955;PMS5003;25631;51.516;-0.470;2023-08-12T10:23:29;3;2;
39955;PMS5003;25631;51.516;-0.470;2023-08-12T10:26:06;4;2;
39955;PMS5003;25631;51.516;-0.470;2023-08-12T10:28:42;2;1;
39955;PMS5003;25631;51.516;-0.470;2023-08-12T10:31:19;2;1;
39955;PMS5003;25631;51.516;-0.470;2023-08-12T10:33:56;1;1;
39955;PMS5003;25631;51.516;-0.470;2023-08-12T10:36:33;1;1;
39955;PMS5003;25631;51.516;-0.470;2023-08-12T10:39:10;1;1;
39955;PMS5003;25631;51.516;-0.470;2023-08-12T10:41:51;1;1;
39955;PMS5003;25631;51.516;-0.470;2023-08-12T10:44:38;1;1;
39955;PMS5003;25631;51.516;-0.470;2023-08-12T10:47:16;1;1;
39955;PMS5003;25631;51.516;-0.470;2023-08-12T10:49:53;3;3;
39955;PMS5003;25631;51.516;-0.470;2023-08-12T10:52:30;3;3;
39955;PMS5003;25631;51.516;-0.470;2023-08-12T10:55:23;2;2;
39955;PMS5003;25631;51.516;-0.470;2023-08-12T10:58:00;3;2;
39955;PMS5003;25631;51.516;-0.470;2023-08-12T11:00:44;2;2;
39955;PMS5003;25631;51.516;-0.470;2023-08-12T11:03:31;1;1;
39955;PMS5003;25631;51.516;-0.470;2023-08-12T11:06:13;2;2;
39955;PMS5003;25631;51.516;-0.470;2023-08-12T11:08:51;2;2;
39955;PMS5003;25631;51.516;-0.470;2023-08-12T11:11:28;2;2;
39955;PMS5003;25631;51.516;-0.470;2023-08-12T11:14:11;1;1;
39955;PMS5003;25631;51.516;-0.470;2023-08-12T11:16:49;2;2;
39955;PMS5003;25631;51.516;-0.470;2023-08-12T11:19:29;2;2;
39955;PMS5003;25631;51.516;-0.470;2023-08-12T11:22:05;1;1;
39955;PMS5003;25631;51.516;-0.470;2023-08-12T11:24:43;3;3;
39955;PMS5003;25631;51.516;-0.470;2023-08-12T11:27:21;3;3;
39955;PMS5003;25631;51.516;-0.470;2023-08-12T11:29:57;1;1;
39955;PMS5003;25631;51.516;-0.470;2023-08-12T11:32:34;2;2;
39955;PMS5003;25631;51.516;-0.470;2023-08-12T11:35:11;2;2;
39955;PMS5003;25631;51.516;-0.470;2023-08-12T11:37:49;1;1;
39955;PMS5003;25631;51.516;-0.470;2023-08-12T11:40:26;1;1;
39955;PMS5003;25631;51.516;-0.470;2023-08-12T11:43:03;1;1;
39955;PMS5003;25631;51.516;-0.470;2023-08-12T11:45:41;1;1;
39955;PMS5003;25631;51.516;-0.470;2023-08-12T11:48:18;1;1;
39955;PMS5003;25631;51.516;-0.470;2023-08-12T11:50:55;2;1;
39955;PMS5003;25631;51.516;-0.470;2023-08-12T11:53:32;2;2;
39955;PMS5003;25631;51.516;-0.470;2023-08-12T11:56:09;3;2;
39955;PMS5003;25631;51.516;-0.470;2023-08-12T11:58:48;0;0;
39955;PMS5003;25631;51.516;-0.470;2023-08-12T12:01:24;1;1;
39955;PMS5003;25631;51.516;-0.470;2023-08-12T12:04:02;2;2;
39955;PMS5003;25631;51.516;-0.470;2023-08-12T12:06:39;1;1;
39955;PMS5003;25631;51.516;-0.470;2023-08-12T12:09:15;0;0;
39955;PMS5003;25631;51.516;-0.470;2023-08-12T12:11:52;4;4;
39955;PMS5003;25631;51.516;-0.470;2023-08-12T12:14:29;4;4;
39955;PMS5003;25631;51.516;-0.470;2023-08-12T12:17:07;3;3;
39955;PMS5003;25631;51.516;-0.470;2023-08-12T12:19:44;3;3;
39955;PMS5003;25631;51.516;-0.470;2023-08-12T12:22:25;4;3;
39955;PMS5003;25631;51.516;-0.470;2023-08-12T12:25:05;5;5;
39955;PMS5003;25631;51.516;-0.470;2023-08-12T12:27:44;5;5;
39955;PMS5003;25631;51.516;-0.470;2023-08-12T12:30:21;4;4;
39955;PMS5003;25631;51.516;-0.470;2023-08-12T12:32:58;6;4;
39955;PMS5003;25631;51.516;-0.470;2023-08-12T12:35:34;5;4;
39955;PMS5003;25631;51.516;-0.470;2023-08-12T12:38:11;6;6;
39955;PMS5003;25631;51.516;-0.470;2023-08-12T12:40:47;5;5;
39955;PMS5003;25631;51.516;-0.470;2023-08-12T12:43:24;5;4;
39955;PMS5003;25631;51.516;-0.470;2023-08-12T12:46:00;4;4;
39955;PMS5003;25631;51.516;-0.470;2023-08-12T12:48:37;4;4;
39955;PMS5003;25631;51.516;-0.470;2023-08-12T12:51:13;4;4;
39955;PMS5003;25631;51.516;-0.470;2023-08-12T12:53:49;4;4;
39955;PMS5003;25631;51.516;-0.470;2023-08-12T12:56:26;4;4;
39955;PMS5003;25631;51.516;-0.470;2023-08-12T12:59:03;6;5;
39955;PMS5003;25631;51.516;-0.470;2023-08-12T13:01:39;5;5;
39955;PMS5003;25631;51.516;-0.470;2023-08-12T13:04:16;5;5;
39955;PMS5003;25631;51.516;-0.470;2023-08-12T13:06:52;6;5;
39955;PMS5003;25631;51.516;-0.470;2023-08-12T13:09:28;7;6;
39955;PMS5003;25631;51.516;-0.470;2023-08-12T13:12:05;10;9;
39955;PMS5003;25631;51.516;-0.470;2023-08-12T13:14:41;9;8;
39955;PMS5003;25631;51.516;-0.470;2023-08-12T13:17:18;8;7;
39955;PMS5003;25631;51.516;-0.470;2023-08-12T13:19:55;9;9;
39955;PMS5003;25631;51.516;-0.470;2023-08-12T13:22:32;9;9;
39955;PMS5003;25631;51.516;-0.470;2023-08-12T13:25:08;5;3;
39955;PMS5003;25631;51.516;-0.470;2023-08-12T13:27:45;5;3;
39955;PMS5003;25631;51.516;-0.470;2023-08-12T13:30:22;6;4;
39955;PMS5003;25631;51.516;-0.470;2023-08-12T13:32:58;8;8;
39955;PMS5003;25631;51.516;-0.470;2023-08-12T13:35:35;8;8;
39955;PMS5003;25631;51.516;-0.470;2023-08-12T13:38:11;7;5;
39955;PMS5003;25631;51.516;-0.470;2023-08-12T13:40:48;8;7;
39955;PMS5003;25631;51.516;-0.470;2023-08-12T13:43:25;7;6;
39955;PMS5003;25631;51.516;-0.470;2023-08-12T13:46:01;10;10;
39955;PMS5003;25631;51.516;-0.470;2023-08-12T13:48:38;10;10;
39955;PMS5003;25631;51.516;-0.470;2023-08-12T13:51:14;11;10;
39955;PMS5003;25631;51.516;-0.470;2023-08-12T13:53:51;5;4;
39955;PMS5003;25631;51.516;-0.470;2023-08-12T13:56:27;4;4;
39955;PMS5003;25631;51.516;-0.470;2023-08-12T13:59:03;8;6;
39955;PMS5003;25631;51.516;-0.470;2023-08-12T14:01:40;7;4;
39955;PMS5003;25631;51.516;-0.470;2023-08-12T14:04:17;7;5;
39955;PMS5003;25631;51.516;-0.470;2023-08-12T14:06:53;8;7;
39955;PMS5003;25631;51.516;-0.470;2023-08-12T14:09:30;8;7;
39955;PMS5003;25631;51.516;-0.470;2023-08-12T14:12:06;5;4;
39955;PMS5003;25631;51.516;-0.470;2023-08-12T14:14:43;4;4;
39955;PMS5003;25631;51.516;-0.470;2023-08-12T14:17:19;5;5;
39955;PMS5003;25631;51.516;-0.470;2023-08-12T14:19:57;7;6;
39955;PMS5003;25631;51.516;-0.470;2023-08-12T14:22:33;6;5;
39955;PMS5003;25631;51.516;-0.470;2023-08-12T14:25:10;7;6;
39955;PMS5003;25631;51.516;-0.470;2023-08-12T14:27:46;7;7;
39955;PMS5003;25631;51.516;-0.470;2023-08-12T14:30:23;7;7;
39955;PMS5003;25631;51.516;-0.470;2023-08-12T14:33:00;6;6;
39955;PMS5003;25631;51.516;-0.470;2023-08-12T14:35:37;7;6;
39955;PMS5003;25631;51.516;-0.470;2023-08-12T14:38:13;7;7;
39955;PMS5003;25631;51.516;-0.470;2023-08-12T14:40:49;11;10;
39955;PMS5003;25631;51.516;-0.470;2023-08-12T14:43:26;9;9;
39955;PMS5003;25631;51.516;-0.470;2023-08-12T14:46:02;10;8;
39955;PMS5003;25631;51.516;-0.470;2023-08-12T14:48:39;11;9;
39955;PMS5003;25631;51.516;-0.470;2023-08-12T14:51:15;9;8;
39955;PMS5003;25631;51.516;-0.470;2023-08-12T14:53:52;7;7;
39955;PMS5003;25631;51.516;-0.470;2023-08-12T14:56:28;7;6;
39955;PMS5003;25631;51.516;-0.470;2023-08-12T14:59:05;9;8;
39955;PMS5003;25631;51.516;-0.470;2023-08-12T15:01:41;8;8;
39955;PMS5003;25631;51.516;-0.470;2023-08-12T15:04:18;7;7;
39955;PMS5003;25631;51.516;-0.470;2023-08-12T15:06:54;7;6;
39955;PMS5003;25631;51.516;-0.470;2023-08-12T15:09:31;8;7;
39955;PMS5003;25631;51.516;-0.470;2023-08-12T15:12:07;10;7;
39955;PMS5003;25631;51.516;-0.470;2023-08-12T15:14:44;5;5;
39955;PMS5003;25631;51.516;-0.470;2023-08-12T15:17:20;4;4;
39955;PMS5003;25631;51.516;-0.470;2023-08-12T15:19:57;10;8;
39955;PMS5003;25631;51.516;-0.470;2023-08-12T15:22:33;9;7;
39955;PMS5003;25631;51.516;-0.470;2023-08-12T15:25:10;7;5;
39955;PMS5003;25631;51.516;-0.470;2023-08-12T15:27:46;6;6;
39955;PMS5003;25631;51.516;-0.470;2023-08-12T15:30:23;6;6;
39955;PMS5003;25631;51.516;-0.470;2023-08-12T15:33:00;7;6;
39955;PMS5003;25631;51.516;-0.470;2023-08-12T15:35:36;8;8;
39955;PMS5003;25631;51.516;-0.470;2023-08-12T15:38:13;7;7;
39955;PMS5003;25631;51.516;-0.470;2023-08-12T15:40:49;8;8;
39955;PMS5003;25631;51.516;-0.470;2023-08-12T15:43:26;8;8;
39955;PMS5003;25631;51.516;-0.470;2023-08-12T15:46:02;10;7;
39955;PMS5003;25631;51.516;-0.470;2023-08-12T15:48:39;12;11;
39955;PMS5003;25631;51.516;-0.470;2023-08-12T15:51:15;12;9;
39955;PMS5003;25631;51.516;-0.470;2023-08-12T15:53:52;8;7;
39955;PMS5003;25631;51.516;-0.470;2023-08-12T15:56:28;7;7;
39955;PMS5003;25631;51.516;-0.470;2023-08-12T15:59:04;7;7;
39955;PMS5003;25631;51.516;-0.470;2023-08-12T16:01:41;6;5;
39955;PMS5003;25631;51.516;-0.470;2023-08-12T16:04:18;7;5;
39955;PMS5003;25631;51.516;-0.470;2023-08-12T16:06:54;6;6;
39955;PMS5003;25631;51.516;-0.470;2023-08-12T16:09:31;7;5;
39955;PMS5003;25631;51.516;-0.470;2023-08-12T16:12:07;7;5;
39955;PMS5003;25631;51.516;-0.470;2023-08-12T16:14:44;8;7;
39955;PMS5003;25631;51.516;-0.470;2023-08-12T16:17:20;7;6;
39955;PMS5003;25631;51.516;-0.470;2023-08-12T16:19:57;7;6;
39955;PMS5003;25631;51.516;-0.470;2023-08-12T16:22:33;7;7;
39955;PMS5003;25631;51.516;-0.470;2023-08-12T16:25:09;7;7;
39955;PMS5003;25631;51.516;-0.470;2023-08-12T16:27:46;7;6;
39955;PMS5003;25631;51.516;-0.470;2023-08-12T16:30:22;7;7;
39955;PMS5003;25631;51.516;-0.470;2023-08-12T16:32:59;7;7;
39955;PMS5003;25631;51.516;-0.470;2023-08-12T16:35:35;5;5;
39955;PMS5003;25631;51.516;-0.470;2023-08-12T16:38:12;4;4;
39955;PMS5003;25631;51.516;-0.470;2023-08-12T16:40:48;4;4;
39955;PMS5003;25631;51.516;-0.470;2023-08-12T16:43:25;5;4;
39955;PMS5003;25631;51.516;-0.470;2023-08-12T16:46:01;5;4;
39955;PMS5003;25631;51.516;-0.470;2023-08-12T16:48:38;6;5;
39955;PMS5003;25631;51.516;-0.470;2023-08-12T16:51:15;5;4;
39955;PMS5003;25631;51.516;-0.470;2023-08-12T16:53:51;5;4;
39955;PMS5003;25631;51.516;-0.470;2023-08-12T16:56:27;5;5;
39955;PMS5003;25631;51.516;-0.470;2023-08-12T16:59:04;5;5;
39955;PMS5003;25631;51.516;-0.470;2023-08-12T17:01:40;7;6;
39955;PMS5003;25631;51.516;-0.470;2023-08-12T17:04:17;5;4;
39955;PMS5003;25631;51.516;-0.470;2023-08-12T17:06:53;6;5;
39955;PMS5003;25631;51.516;-0.470;2023-08-12T17:09:29;5;5;
39955;PMS5003;25631;51.516;-0.470;2023-08-12T17:12:06;5;4;
39955;PMS5003;25631;51.516;-0.470;2023-08-12T17:14:43;5;4;
39955;PMS5003;25631;51.516;-0.470;2023-08-12T17:17:19;4;4;
39955;PMS5003;25631;51.516;-0.470;2023-08-12T17:19:56;4;4;
39955;PMS5003;25631;51.516;-0.470;2023-08-12T17:22:33;7;4;
39955;PMS5003;25631;51.516;-0.470;2023-08-12T17:25:09;6;4;
39955;PMS5003;25631;51.516;-0.470;2023-08-12T17:27:46;7;4;
39955;PMS5003;25631;51.516;-0.470;2023-08-12T17:30:22;6;5;
39955;PMS5003;25631;51.516;-0.470;2023-08-12T17:32:59;6;5;
39955;PMS5003;25631;51.516;-0.470;2023-08-12T17:35:35;7;5;
39955;PMS5003;25631;51.516;-0.470;2023-08-12T17:38:12;7;5;